METAR LDSP 280800Z 20003KT 110V240 CAVOK 32/13 Q1015 NOSIG=
METAR LDSP 280730Z VRB02KT CAVOK 31/17 Q1014 NOSIG=
METAR LDSP 280700Z VRB01KT CAVOK 30/15 Q1015 NOSIG=
METAR LDSP 280630Z 00000KT CAVOK 29/15 Q1015 NOSIG=
METAR LDSP 280600Z 00000KT CAVOK 30/14 Q1014 NOSIG=
METAR LDSP 280530Z 00000KT CAVOK 28/15 Q1014 NOSIG=
METAR LDSP 280500Z 00000KT CAVOK 24/14 Q1014 NOSIG=
METAR LDSP 280430Z 00000KT CAVOK 24/15 Q1014 NOSIG=
METAR LDSP 280400Z 00000KT CAVOK 23/15 Q1014 NOSIG=
METAR LDSP 280330Z AUTO 00000KT CAVOK 23/16 Q1014 NOSIG=
METAR LDSP 280300Z AUTO VRB01KT CAVOK 23/13 Q1015 NOSIG=
METAR LDSP 280230Z AUTO VRB02KT CAVOK 23/15 Q1015 NOSIG=
METAR LDSP 280200Z AUTO 36005KT CAVOK 23/15 Q1015 NOSIG=
METAR LDSP 280130Z AUTO 00000KT CAVOK 23/15 Q1015=
METAR LDSP 280100Z AUTO 03006KT CAVOK 25/14 Q1015=
METAR LDSP 280030Z AUTO 00000KT CAVOK 23/15 Q1015=
METAR LDSP 280000Z AUTO 36002KT CAVOK 24/14 Q1015=
METAR LDSP 272330Z AUTO 00000KT CAVOK 24/14 Q1015=
METAR LDSP 272300Z AUTO 00000KT CAVOK 24/16 Q1016=
METAR LDSP 272230Z AUTO 35001KT CAVOK 24/14 Q1016=
METAR LDSP 272200Z AUTO 00000KT CAVOK 24/14 Q1016=
METAR LDSP 272130Z AUTO 00000KT CAVOK 25/14 Q1016=
METAR LDSP 272100Z 00000KT CAVOK 25/15 Q1016 NOSIG=
METAR LDSP 272030Z VRB02KT CAVOK 26/17 Q1016 NOSIG=
METAR LDSP 272000Z 32004KT 300V360 CAVOK 27/14 Q1016 NOSIG=
METAR LDSP 271930Z 32003KT 300V010 CAVOK 27/14 Q1016 NOSIG=
METAR LDSP 271900Z 35005KT CAVOK 27/14 Q1015 NOSIG=
METAR LDSP 271830Z 25004KT 200V310 CAVOK 29/16 Q1015 NOSIG=
METAR LDSP 271800Z 22004KT CAVOK 28/16 Q1015 NOSIG=
METAR LDSP 271730Z 23007KT CAVOK 29/17 Q1015 BECMG 23005KT=
METAR LDSP 271700Z 23009KT CAVOK 30/17 Q1015 BECMG 23005KT=
METAR LDSP 271630Z 23010KT CAVOK 31/18 Q1015 BECMG 23005KT=
METAR LDSP 271600Z 22010KT CAVOK 31/17 Q1015 BECMG 23005KT=
METAR LDSP 271530Z 23011KT CAVOK 32/18 Q1016 BECMG 23005KT=
METAR LDSP 271500Z 23008KT CAVOK 32/18 Q1016 BECMG 23005KT=
METAR LDSP 271430Z 25009KT CAVOK 32/17 Q1016 BECMG FM1500 23005KT=
METAR LDSP 271400Z 23011KT CAVOK 32/18 Q1016 NOSIG=
METAR LDSP 271330Z 23010KT CAVOK 34/16 Q1016 NOSIG=
METAR LDSP 271300Z 23010KT CAVOK 35/15 Q1016 NOSIG=
METAR LDSP 271230Z 22009KT 190V250 CAVOK 35/14 Q1016 NOSIG=
METAR COR LDSP 271200Z 23007KT CAVOK 34/14 Q1017 NOSIG=
METAR LDSP 271130Z 18005KT 120V220 CAVOK 34/14 Q1017 BECMG TL1200 23008KT=
METAR LDSP 271100Z 17005KT 110V220 CAVOK 35/14 Q1017 BECMG TL1200 23008KT=
METAR LDSP 271030Z 10007KT CAVOK 35/13 Q1017 BECMG TL1200 23008KT=
METAR LDSP 271000Z 11007KT 070V130 CAVOK 35/14 Q1017 NOSIG=
METAR LDSP 270930Z 12005KT 080V180 CAVOK 34/13 Q1017 NOSIG=
METAR LDSP 270900Z 11006KT 070V150 CAVOK 34/13 Q1017 NOSIG=
METAR LDSP 270830Z 11006KT 060V160 CAVOK 34/13 Q1017 NOSIG=
METAR LDSP 270800Z 10004KT 060V150 CAVOK 33/13 Q1017 NOSIG=
METAR LDSP 270730Z 19003KT 150V220 CAVOK 31/13 Q1017 NOSIG=
METAR LDSP 270700Z 00000KT CAVOK 32/13 Q1017 NOSIG=
METAR LDSP 270630Z VRB01KT CAVOK 30/13 Q1017 NOSIG=
METAR LDSP 270600Z 00000KT CAVOK 29/13 Q1016 NOSIG=
METAR LDSP 270530Z 00000KT CAVOK 27/17 Q1016 NOSIG=
METAR LDSP 270500Z 00000KT CAVOK 26/14 Q1016 NOSIG=
METAR LDSP 270430Z 00000KT CAVOK 25/14 Q1016 NOSIG=
METAR LDSP 270400Z 00000KT CAVOK 24/13 Q1016 NOSIG=
METAR LDSP 270330Z 01004KT CAVOK 24/13 Q1016 NOSIG=
METAR LDSP 270300Z AUTO 01003KT CAVOK 24/13 Q1015 NOSIG=
METAR LDSP 270230Z AUTO 06003KT 010V090 CAVOK 23/13 Q1015 NOSIG=
METAR LDSP 270200Z AUTO 07003KT 020V110 CAVOK 25/13 Q1016 NOSIG=
METAR LDSP 270130Z AUTO VRB02KT CAVOK 24/14 Q1016=
METAR LDSP 270100Z AUTO 06003KT CAVOK 25/13 Q1016=
METAR LDSP 270030Z AUTO 01003KT 350V100 CAVOK 26/13 Q1016=
METAR LDSP 270000Z AUTO 01004KT CAVOK 25/14 Q1015=
METAR LDSP 262330Z AUTO 36004KT CAVOK 25/14 Q1016=
METAR LDSP 262300Z AUTO 02003KT 350V090 CAVOK 25/15 Q1016=
METAR LDSP 262230Z AUTO 34001KT CAVOK 25/18 Q1016=
METAR LDSP 262200Z AUTO VRB01KT CAVOK 25/17 Q1016=
METAR LDSP 262130Z AUTO VRB01KT CAVOK 26/19 Q1016=
METAR LDSP 262100Z AUTO 02003KT 350V060 CAVOK 28/15 Q1015=
METAR LDSP 262030Z VRB01KT CAVOK 27/15 Q1016 NOSIG=